Ramore, Canada
Current Conditions -  °F | °C
As of 1:00 AM on Thursday 29 Jan 2015 (Local Time) from CYTS Reporting Station
Overcast Overcast  
Wind Chill:   Ceiling: 6700
Heat Index: 19°   Visibility: 15mi
Dew Point: 10°   Wind: 12mph
Humidity: 68%   Direction: 160°SSE
Pressure: 29.96"   Gusts: NA
Location:  48.42°N, 80.32°W
Report Text: CYTS 290600Z 16010KT 15SM OVC067 M07/M12 A2996 RMK AC8 SLP168
Loading
Personal Weather Stations






























Interactive Weather Map New forecast layout! Learn more

10-Day Weather Forecast

Advertisements
Track Severe Weather on mobile